Overview Statistics Trail Chart Weather Telemetry Raw packets
 

This is the latest recevied weather packets stored in our database for station/object AI5BL. If no packets are shown the sender has not sent any weather packets the latest 10 day(s).

<< 92 93 94 95 96 97 98 >>
Time Temp. Humidity Pressure Rain* Wind** Luminosity Snow
1787963693 28.33° C 72% 1017.4 hPa 0 mm - 0 W/m² -
1787963393 28.33° C 72% 1017.1 hPa 0 mm - 1 W/m² -
1787963088 28.89° C 72% 1017.2 hPa 0 mm - 2 W/m² -
1787962787 28.89° C 73% 1017.2 hPa 0 mm - 3 W/m² -
1787962486 29.44° C 69% 1017.2 hPa 0 mm - 5 W/m² -
1787962185 29.44° C 68% 1017.3 hPa 0 mm - 8 W/m² -
1787961880 30° C 68% 1017.3 hPa 0 mm - 13 W/m² -
1787961578 30° C 66% 1017.3 hPa 0 mm - 19 W/m² -
1787961273 30.56° C 65% 1017.5 hPa 0 mm - 24 W/m² -
1787960973 30.56° C 65% 1017.4 hPa 0 mm - 26 W/m² -
1787960668 30.56° C 65% 1017.4 hPa 0 mm - 30 W/m² -
1787960366 30.56° C 66% 1017.3 hPa 0 mm - 30 W/m² -
1787960061 30° C 70% 1017.3 hPa 0 mm - 46 W/m² -
1787959756 30° C 70% 1017.3 hPa 0 mm - 49 W/m² -
1787959452 30.56° C 69% 1017.4 hPa 0 mm - 53 W/m² -
1787959146 30.56° C 69% 1017.5 hPa 0 mm - 43 W/m² -
1787958851 30.56° C 66% 1017.3 hPa 0 mm - 46 W/m² -
1787958537 30.56° C 64% 1017.3 hPa 0 mm - 51 W/m² -
1787958233 31.11° C 62% 1017.3 hPa 0 mm - 42 W/m² -
1787957932 31.11° C 65% 1017.4 hPa 0 mm - 30 W/m² -
1787957631 31.67° C 56% 1017.2 hPa 0 mm - 25 W/m² -
1787957327 32.22° C 55% 1017 hPa 0 mm - 24 W/m² -
1787957026 32.22° C 54% 1017 hPa 0 mm - 41 W/m² -
1787956725 32.22° C 58% 1017.1 hPa 0 mm - 66 W/m² -
1787956421 32.22° C 55% 1017 hPa 0 mm - 96 W/m² -

* Rain latest hour (hover to see other rain measurements)
** Current wind speed in m/s (hover to see current wind gust speed)